Time;durP1;ratioP1;P1;durP2;ratioP2;P2;SDS_P1;SDS_P2;PMS_P1;PMS_P2;Temp;Humidity;BMP_temperature;BMP_pressure;BME280_temperature;BME280_humidity;BME280_pressure;Samples;Min_cycle;Max_cycle;Signal;HPM_P1;HPM_P2
2023/11/19 00:01:12;;;;;;;;;0.00;0.00;;;;;14.30;100.00;101290.44;5060249;28;67376;-49
2023/11/19 00:03:38;;;;;;;;;0.67;0.67;;;;;14.34;100.00;101283.94;5059903;28;65942;-49
2023/11/19 00:06:04;;;;;;;;;0.50;0.50;;;;;14.38;100.00;101282.84;5056730;28;61640;-49
2023/11/19 00:08:29;;;;;;;;;0.00;0.00;;;;;14.43;100.00;101282.56;5062719;28;46264;-51
2023/11/19 00:10:55;;;;;;;;;0.00;0.00;;;;;14.46;100.00;101272.53;5057843;28;63500;-51
2023/11/19 00:13:20;;;;;;;;;0.00;0.00;;;;;14.49;100.00;101274.16;5058217;28;65813;-51
2023/11/19 00:15:47;;;;;;;;;1.00;1.00;;;;;14.53;100.00;101281.06;5058142;28;70305;-51
2023/11/19 00:18:14;;;;;;;;;0.75;0.75;;;;;14.54;100.00;101280.13;5058156;28;46401;-50
2023/11/19 00:20:39;;;;;;;;;0.00;0.00;;;;;14.56;100.00;101265.69;5064042;28;45398;-50
2023/11/19 00:23:04;;;;;;;;;0.00;0.00;;;;;14.58;100.00;101268.28;5057974;28;45583;-51
2023/11/19 00:25:30;;;;;;;;;0.00;0.00;;;;;14.60;100.00;101271.72;5058022;28;69481;-50
2023/11/19 00:27:56;;;;;;;;;0.00;0.00;;;;;14.61;100.00;101273.44;5057643;28;75570;-49
2023/11/19 00:30:21;;;;;;;;;1.00;0.00;;;;;14.62;100.00;101264.44;5057953;28;45832;-49
2023/11/19 00:32:47;;;;;;;;;0.33;0.33;;;;;14.63;100.00;101263.50;5057863;28;69329;-49
2023/11/19 00:35:15;;;;;;;;;0.00;0.00;;;;;14.64;100.00;101261.72;5056366;28;69313;-50
2023/11/19 00:37:42;;;;;;;;;0.00;0.00;;;;;14.64;100.00;101262.59;5074609;28;45632;-49
2023/11/19 00:40:10;;;;;;;;;2.00;0.50;;;;;14.65;100.00;101261.66;5058236;28;45426;-49
2023/11/19 00:42:35;;;;;;;;;0.00;0.00;;;;;14.65;100.00;101250.06;5060404;28;45418;-48
2023/11/19 00:45:01;;;;;;;;;0.00;0.00;;;;;14.66;100.00;101263.34;5060603;28;70563;-49
2023/11/19 00:47:26;;;;;;;;;0.00;0.00;;;;;14.68;100.00;101255.25;5040765;28;47049;-50
2023/11/19 00:49:52;;;;;;;;;0.00;0.00;;;;;14.69;100.00;101257.81;5056100;28;73329;-48
2023/11/19 00:52:18;;;;;;;;;0.33;0.33;;;;;14.70;100.00;101254.16;5068789;28;45607;-48
2023/11/19 00:54:43;;;;;;;;;0.67;0.00;;;;;14.71;100.00;101255.03;5058937;28;45425;-48
2023/11/19 00:57:09;;;;;;;;;0.00;0.00;;;;;14.72;100.00;101259.47;5058467;28;45312;-49
2023/11/19 00:59:34;;;;;;;;;0.00;0.00;;;;;14.72;100.00;101259.47;5057232;28;71112;-49
2023/11/19 01:02:03;;;;;;;;;0.00;0.00;;;;;14.72;100.00;101252.28;5056321;28;68413;-49
2023/11/19 01:04:38;;;;;;;;;0.00;0.00;;;;;14.73;100.00;101255.81;5058563;28;45418;-50
2023/11/19 01:07:04;;;;;;;;;1.00;0.00;;;;;14.73;100.00;101247.75;5058212;28;45540;-48
2023/11/19 01:09:32;;;;;;;;;0.00;0.00;;;;;14.74;100.00;101259.34;5056565;28;45324;-51
2023/11/19 01:11:57;;;;;;;;;0.00;0.00;;;;;14.75;100.00;101256.59;5067156;28;45548;-48
2023/11/19 01:14:23;;;;;;;;;0.00;0.00;;;;;14.74;100.00;101262.03;5058245;28;45611;-52
2023/11/19 01:16:48;;;;;;;;;0.00;0.00;;;;;14.72;100.00;101254.94;5057035;28;75148;-48
2023/11/19 01:19:14;;;;;;;;;0.00;0.00;;;;;14.72;100.00;101260.31;5057604;28;45301;-52
2023/11/19 01:21:39;;;;;;;;;0.00;0.00;;;;;14.72;100.00;101267.50;5056391;28;69101;-49
2023/11/19 01:24:09;;;;;;;;;0.00;0.00;;;;;14.72;100.00;101262.97;5090034;27;47296;-49
2023/11/19 01:26:34;;;;;;;;;0.00;0.00;;;;;14.73;100.00;101247.75;5056429;28;46328;-48
2023/11/19 01:29:01;;;;;;;;;0.75;0.00;;;;;14.74;100.00;101259.34;5056019;28;45261;-48
2023/11/19 01:31:26;;;;;;;;;0.00;0.00;;;;;14.75;100.00;101255.72;5058552;28;46314;-48
2023/11/19 01:33:51;;;;;;;;;0.00;0.00;;;;;14.73;100.00;101258.47;5061780;28;45567;-48
2023/11/19 01:36:17;;;;;;;;;0.00;0.00;;;;;14.72;100.00;101256.78;5061873;28;47134;-49
2023/11/19 01:38:42;;;;;;;;;0.00;0.00;;;;;14.75;100.00;101261.09;5061518;28;45421;-52
2023/11/19 01:41:08;;;;;;;;;0.00;0.00;;;;;14.73;100.00;101269.19;5061375;28;45467;-49
2023/11/19 01:43:37;;;;;;;;;0.25;0.25;;;;;14.72;100.00;101273.69;5061558;28;45449;-47
2023/11/19 01:46:04;;;;;;;;;0.00;0.00;;;;;14.70;100.00;101267.56;5060907;28;45629;-50
2023/11/19 01:48:30;;;;;;;;;0.00;0.00;;;;;14.68;100.00;101271.31;5060789;28;49361;-50
2023/11/19 01:50:55;;;;;;;;;0.50;0.00;;;;;14.67;100.00;101275.78;5059952;28;45468;-51
2023/11/19 01:53:21;;;;;;;;;0.00;0.00;;;;;14.68;100.00;101277.50;5060968;28;53874;-52
2023/11/19 01:55:47;;;;;;;;;0.00;0.00;;;;;14.67;100.00;101273.09;5061123;28;57731;-49
2023/11/19 01:58:12;;;;;;;;;0.00;0.00;;;;;14.68;100.00;101268.63;5060202;28;65539;-49
2023/11/19 02:00:38;;;;;;;;;0.00;0.00;;;;;14.67;100.00;101264.22;5060434;28;64723;-50
2023/11/19 02:03:06;;;;;;;;;0.00;0.00;;;;;14.65;100.00;101255.41;5061216;28;45310;-48
2023/11/19 02:05:32;;;;;;;;;0.00;0.00;;;;;14.62;100.00;101248.38;5060038;28;47184;-51
2023/11/19 02:07:58;;;;;;;;;0.00;0.00;;;;;14.58;100.00;101251.38;5060897;28;45369;-47
2023/11/19 02:10:24;;;;;;;;;0.00;0.00;;;;;14.52;100.00;101247.22;5061489;28;45345;-51
2023/11/19 02:12:51;;;;;;;;;0.00;0.00;;;;;14.47;100.00;101239.47;5062873;28;45305;-49
2023/11/19 02:15:18;;;;;;;;;0.67;0.00;;;;;14.42;100.00;101244.25;5059679;28;46479;-49
2023/11/19 02:17:44;;;;;;;;;0.00;0.00;;;;;14.36;100.00;101245.44;5060667;28;45516;-48
2023/11/19 02:20:11;;;;;;;;;0.00;0.00;;;;;14.31;100.00;101250.19;5060762;28;45428;-48
2023/11/19 02:22:37;;;;;;;;;0.00;0.00;;;;;14.26;100.00;101241.59;5061093;28;45437;-51
2023/11/19 02:25:07;;;;;;;;;0.00;0.00;;;;;14.23;100.00;101247.97;5060157;28;50551;-51
2023/11/19 02:27:48;;;;;;;;;0.00;0.00;;;;;14.20;100.00;101242.81;5093524;27;45405;-48
2023/11/19 02:30:14;;;;;;;;;0.00;0.00;;;;;14.17;100.00;101248.34;5060620;28;45410;-48
2023/11/19 02:32:41;;;;;;;;;0.33;0.00;;;;;14.14;100.00;101239.63;5059636;28;45463;-48
2023/11/19 02:35:07;;;;;;;;;1.00;0.00;;;;;14.10;100.00;101244.28;5059736;28;51509;-50
2023/11/19 02:37:33;;;;;;;;;0.25;0.00;;;;;14.06;100.00;101238.25;5060666;28;45433;-49
2023/11/19 02:40:09;;;;;;;;;0.00;0.00;;;;;14.03;100.00;101234.91;5060131;28;45983;-52
2023/11/19 02:42:35;;;;;;;;;0.00;0.00;;;;;14.02;100.00;101235.88;5056723;28;45516;-48
2023/11/19 02:45:01;;;;;;;;;0.00;0.00;;;;;14.00;100.00;101227.94;5092365;27;47405;-50
2023/11/19 02:47:28;;;;;;;;;2.00;0.00;;;;;14.00;100.00;101229.72;5060358;28;45358;-49
2023/11/19 02:49:53;;;;;;;;;2.00;0.00;;;;;13.99;100.00;101228.03;5058552;28;45550;-49
2023/11/19 02:52:19;;;;;;;;;0.00;0.00;;;;;13.99;100.00;101228.88;5060436;28;52891;-50
2023/11/19 02:54:45;;;;;;;;;0.00;0.00;;;;;14.01;100.00;101220.75;5058888;28;72610;-49
2023/11/19 02:57:11;;;;;;;;;0.00;0.00;;;;;13.98;100.00;101223.63;5060359;28;45687;-55
2023/11/19 02:59:39;;;;;;;;;0.00;0.00;;;;;13.96;100.00;101222.84;5061401;28;45529;-49
2023/11/19 03:02:11;;;;;;;;;1.50;0.00;;;;;13.96;100.00;101221.03;5059177;28;45382;-47
2023/11/19 03:04:38;;;;;;;;;0.00;0.00;;;;;13.93;100.00;101229.22;5059824;28;45366;-46
2023/11/19 03:07:03;;;;;;;;;0.50;0.00;;;;;13.91;100.00;101231.13;5059371;28;45437;-48
2023/11/19 03:09:29;;;;;;;;;0.00;0.00;;;;;13.89;100.00;101227.69;5058161;28;69101;-49
2023/11/19 03:11:54;;;;;;;;;1.00;1.00;;;;;13.87;100.00;101227.78;5057329;28;45728;-47
2023/11/19 03:14:20;;;;;;;;;0.00;0.00;;;;;13.85;100.00;101223.47;5058494;28;46666;-48
2023/11/19 03:16:48;;;;;;;;;0.00;0.00;;;;;13.84;100.00;101232.44;5058710;28;71786;-48
2023/11/19 03:19:14;;;;;;;;;0.00;0.00;;;;;13.84;100.00;101243.97;5058492;28;45386;-49
2023/11/19 03:21:40;;;;;;;;;0.00;0.00;;;;;13.82;100.00;101226.28;5058464;28;45545;-48
2023/11/19 03:24:06;;;;;;;;;0.00;0.00;;;;;13.79;100.00;101224.66;5057100;28;75395;-48
2023/11/19 03:26:33;;;;;;;;;1.00;0.00;;;;;13.78;100.00;101227.41;5059674;28;46522;-48
2023/11/19 03:28:59;;;;;;;;;0.33;0.00;;;;;13.75;100.00;101231.13;5064640;28;45589;-49
2023/11/19 03:31:24;;;;;;;;;0.00;0.00;;;;;13.75;100.00;101232.94;5057771;28;70281;-48
2023/11/19 03:33:50;;;;;;;;;0.00;0.00;;;;;13.72;100.00;101233.97;5058717;28;45472;-51
2023/11/19 03:36:15;;;;;;;;;0.00;0.00;;;;;13.71;100.00;101222.44;5057659;28;58396;-48
2023/11/19 03:38:42;;;;;;;;;0.00;0.00;;;;;13.72;100.00;101223.28;5058350;28;67934;-47
2023/11/19 03:41:11;;;;;;;;;0.00;0.00;;;;;13.72;100.00;101217.94;5058096;28;45450;-48
2023/11/19 03:43:37;;;;;;;;;0.00;0.00;;;;;13.72;100.00;101212.59;5058797;28;45413;-49
2023/11/19 03:46:02;;;;;;;;;0.00;0.00;;;;;13.70;100.00;101215.38;5057576;28;73139;-48
2023/11/19 03:48:27;;;;;;;;;0.00;0.00;;;;;13.72;100.00;101221.47;5057115;28;47622;-48
2023/11/19 03:50:53;;;;;;;;;1.00;0.00;;;;;13.75;100.00;101228.44;5057759;28;70346;-46
2023/11/19 03:53:18;;;;;;;;;0.00;0.00;;;;;13.78;100.00;101216.72;5056529;28;47110;-47
2023/11/19 03:55:44;;;;;;;;;0.67;0.67;;;;;13.77;100.00;101220.38;5058122;28;45433;-48
2023/11/19 03:58:09;;;;;;;;;0.67;0.00;;;;;13.75;100.00;101231.13;5056624;28;45748;-47
2023/11/19 04:00:34;;;;;;;;;2.00;0.67;;;;;13.72;100.00;101232.16;5057501;28;45623;-47
2023/11/19 04:03:00;;;;;;;;;0.33;0.00;;;;;13.69;100.00;101227.00;5038747;28;53272;-48
2023/11/19 04:05:25;;;;;;;;;0.00;0.00;;;;;13.66;100.00;101219.16;5057416;28;45553;-47
2023/11/19 04:07:51;;;;;;;;;1.00;0.00;;;;;13.67;100.00;101228.03;5058329;28;64289;-50
2023/11/19 04:10:16;;;;;;;;;1.50;0.00;;;;;13.65;100.00;101224.56;5057371;28;69527;-48
2023/11/19 04:12:42;;;;;;;;;0.00;0.00;;;;;13.62;100.00;101230.94;5057680;28;46217;-48
2023/11/19 04:15:08;;;;;;;;;0.00;0.00;;;;;13.61;100.00;101231.94;5056925;28;46597;-49
2023/11/19 04:17:33;;;;;;;;;0.00;0.00;;;;;13.62;100.00;101222.94;5057867;28;45499;-47
2023/11/19 04:19:59;;;;;;;;;0.75;0.00;;;;;13.60;100.00;101231.97;5056026;28;45549;-48
2023/11/19 04:22:26;;;;;;;;;1.67;0.67;;;;;13.59;100.00;101235.63;5057514;28;46509;-52
2023/11/19 04:24:51;;;;;;;;;1.67;1.00;;;;;13.57;100.00;101243.72;5057065;28;45466;-49
2023/11/19 04:27:17;;;;;;;;;0.00;0.00;;;;;13.57;100.00;101241.91;5058408;28;46682;-49
2023/11/19 04:29:42;;;;;;;;;0.00;0.00;;;;;13.59;100.00;101241.81;5055810;28;68391;-48
2023/11/19 04:32:07;;;;;;;;;0.50;0.00;;;;;13.59;100.00;101236.47;5039728;28;47115;-48
2023/11/19 04:34:33;;;;;;;;;0.00;0.00;;;;;13.60;100.00;101231.97;5056443;28;74154;-48
2023/11/19 04:37:01;;;;;;;;;0.00;0.00;;;;;13.60;100.00;101227.53;5056365;28;47268;-48
2023/11/19 04:39:27;;;;;;;;;0.00;0.00;;;;;13.58;100.00;101234.75;5056750;28;45520;-48
2023/11/19 04:41:53;;;;;;;;;0.00;0.00;;;;;13.57;100.00;101238.38;5058646;28;45581;-48
2023/11/19 04:44:18;;;;;;;;;0.00;0.00;;;;;13.56;100.00;101242.00;5040284;28;45324;-48
2023/11/19 04:46:44;;;;;;;;;0.00;0.00;;;;;13.56;100.00;101242.00;5056639;28;46417;-51
2023/11/19 04:49:10;;;;;;;;;2.00;1.00;;;;;13.56;100.00;101248.19;5056778;28;45636;-47
2023/11/19 04:51:43;;;;;;;;;1.00;0.00;;;;;13.55;100.00;101242.94;5055963;28;45847;-47
2023/11/19 04:54:10;;;;;;;;;0.00;0.00;;;;;13.52;100.00;101251.16;5057554;28;47560;-49
2023/11/19 04:56:39;;;;;;;;;0.00;0.00;;;;;13.50;100.00;101261.91;5056606;28;69142;-50
2023/11/19 04:59:05;;;;;;;;;0.00;0.00;;;;;13.48;100.00;101257.59;5061611;28;45263;-47
2023/11/19 05:01:33;;;;;;;;;0.00;0.00;;;;;13.46;100.00;101259.50;5056332;28;45735;-47
2023/11/19 05:03:59;;;;;;;;;1.00;0.00;;;;;13.43;100.00;101256.97;5055288;28;47041;-47
2023/11/19 05:06:31;;;;;;;;;0.33;0.33;;;;;13.43;100.00;101255.19;5057494;28;68239;-47
2023/11/19 05:09:07;;;;;;;;;0.00;0.00;;;;;13.44;100.00;101261.38;5050498;28;45478;-48
2023/11/19 05:11:34;;;;;;;;;0.00;0.00;;;;;13.45;100.00;101257.75;5091376;27;46609;-47
2023/11/19 05:13:59;;;;;;;;;0.00;0.00;;;;;13.46;100.00;101256.81;5059144;28;45549;-46
2023/11/19 05:16:25;;;;;;;;;0.00;0.00;;;;;13.46;100.00;101256.81;5061338;28;45247;-48
2023/11/19 05:18:50;;;;;;;;;0.50;0.50;;;;;13.46;100.00;101254.16;5060888;27;45438;-47
2023/11/19 05:21:17;;;;;;;;;0.00;0.00;;;;;13.44;100.00;101264.03;5059725;28;75520;-47
2023/11/19 05:23:42;;;;;;;;;0.00;0.00;;;;;13.43;100.00;101265.88;5059587;28;45259;-49
2023/11/19 05:26:08;;;;;;;;;1.67;1.00;;;;;13.40;100.00;101276.72;5060828;28;45296;-47
2023/11/19 05:28:34;;;;;;;;;0.00;0.00;;;;;13.36;100.00;101267.09;5061933;28;45417;-47
2023/11/19 05:30:59;;;;;;;;;0.00;0.00;;;;;13.33;100.00;101267.28;5059880;28;45414;-46
2023/11/19 05:33:25;;;;;;;;;0.00;0.00;;;;;13.30;100.00;101264.78;5060558;28;45538;-47
2023/11/19 05:35:50;;;;;;;;;0.50;0.00;;;;;13.26;100.00;101269.44;5060767;28;45609;-47
2023/11/19 05:38:16;;;;;;;;;0.00;0.00;;;;;13.23;100.00;101262.44;5059651;28;69109;-47
2023/11/19 05:40:42;;;;;;;;;0.00;0.00;;;;;13.21;100.00;101271.47;5093044;27;51131;-47
2023/11/19 05:43:07;;;;;;;;;0.67;0.00;;;;;13.18;100.00;101269.84;5058616;28;45423;-47
2023/11/19 05:45:32;;;;;;;;;1.00;0.00;;;;;13.15;100.00;101271.81;5059680;28;45399;-48
2023/11/19 05:47:58;;;;;;;;;2.00;0.33;;;;;13.12;100.00;101278.16;5059057;28;45346;-47
2023/11/19 05:50:23;;;;;;;;;0.00;0.00;;;;;13.10;100.00;101273.84;5060898;28;45370;-50
2023/11/19 05:52:49;;;;;;;;;1.00;1.00;;;;;13.06;100.00;101274.03;5061822;28;45438;-48
2023/11/19 05:55:14;;;;;;;;;1.33;0.00;;;;;13.04;100.00;101273.22;5056764;28;45809;-49
2023/11/19 05:57:40;;;;;;;;;1.00;1.00;;;;;13.03;100.00;101273.31;5061277;28;45526;-51
2023/11/19 06:00:06;;;;;;;;;2.00;0.00;;;;;13.02;100.00;101284.94;5058624;28;48013;-48
2023/11/19 06:02:34;;;;;;;;;0.00;0.00;;;;;13.00;100.00;101279.69;5060361;28;45282;-48
2023/11/19 06:05:00;;;;;;;;;2.67;0.00;;;;;12.98;100.00;101286.91;5055694;28;69592;-48
2023/11/19 06:07:26;;;;;;;;;0.67;0.00;;;;;12.96;100.00;101290.59;5060666;28;45472;-48
2023/11/19 06:09:51;;;;;;;;;1.00;1.00;;;;;12.95;100.00;101297.75;5059118;28;70291;-48
2023/11/19 06:12:17;;;;;;;;;0.00;0.00;;;;;12.93;100.00;101288.94;5057819;28;45386;-47
2023/11/19 06:14:42;;;;;;;;;0.00;0.00;;;;;12.92;100.00;101289.91;5060136;28;45412;-48
2023/11/19 06:17:08;;;;;;;;;1.67;1.00;;;;;12.90;100.00;101289.13;5058233;28;45279;-48
2023/11/19 06:19:34;;;;;;;;;1.00;1.00;;;;;12.90;100.00;101297.13;5060147;28;46165;-49
2023/11/19 06:21:59;;;;;;;;;1.00;0.00;;;;;12.87;100.00;101300.81;5057979;28;45710;-49
2023/11/19 06:24:24;;;;;;;;;0.00;0.00;;;;;12.87;100.00;101294.63;5060661;28;69578;-50
2023/11/19 06:26:50;;;;;;;;;2.00;2.00;;;;;12.85;100.00;101305.38;5064074;28;69286;-48
2023/11/19 06:29:18;;;;;;;;;0.00;0.00;;;;;12.84;100.00;101302.78;5058070;28;76641;-47
2023/11/19 06:31:43;;;;;;;;;0.00;0.00;;;;;12.81;100.00;101298.47;5062356;28;45559;-49
2023/11/19 06:34:10;;;;;;;;;0.00;0.00;;;;;12.79;100.00;101299.47;5057948;28;69472;-48
2023/11/19 06:36:35;;;;;;;;;0.33;0.33;;;;;12.78;100.00;101292.44;5059843;28;45456;-50
2023/11/19 06:39:01;;;;;;;;;1.00;1.00;;;;;12.75;100.00;101301.47;5081423;27;48226;-51
2023/11/19 06:41:28;;;;;;;;;0.00;0.00;;;;;12.73;100.00;101304.19;5042684;28;73170;-48
2023/11/19 06:43:54;;;;;;;;;1.00;1.00;;;;;12.73;100.00;101309.53;5062389;28;45327;-47
2023/11/19 06:46:19;;;;;;;;;1.00;1.00;;;;;12.70;100.00;101303.50;5061352;28;69300;-48
2023/11/19 06:48:45;;;;;;;;;1.00;0.00;;;;;12.69;100.00;101309.78;5093856;27;45677;-51
2023/11/19 06:51:11;;;;;;;;;3.00;1.00;;;;;12.68;100.00;101308.88;5057767;28;45411;-50
2023/11/19 06:53:36;;;;;;;;;4.67;0.67;;;;;12.66;100.00;101302.78;5063560;28;45484;-50
2023/11/19 06:56:06;;;;;;;;;2.00;0.67;;;;;12.65;100.00;101309.06;5058424;28;69523;-49
2023/11/19 06:58:32;;;;;;;;;1.33;1.00;;;;;12.63;100.00;101307.41;5059158;28;45576;-48
2023/11/19 07:00:57;;;;;;;;;0.33;0.33;;;;;12.62;100.00;101308.34;5059291;28;45342;-49
2023/11/19 07:03:22;;;;;;;;;2.00;1.00;;;;;12.60;100.00;101315.59;5060107;28;45442;-48
2023/11/19 07:05:48;;;;;;;;;5.00;0.67;;;;;12.59;100.00;101314.69;5059390;28;69204;-48
2023/11/19 07:08:13;;;;;;;;;3.00;1.00;;;;;12.57;100.00;101319.25;5061477;28;46353;-47
2023/11/19 07:10:39;;;;;;;;;0.33;0.33;;;;;12.55;100.00;101313.13;5058428;28;50439;-48
2023/11/19 07:13:05;;;;;;;;;1.00;1.00;;;;;12.56;100.00;101321.06;5060564;28;67880;-48
2023/11/19 07:15:32;;;;;;;;;2.00;2.00;;;;;12.56;100.00;101320.19;5062866;27;46488;-49
2023/11/19 07:17:59;;;;;;;;;1.00;1.00;;;;;12.56;100.00;101320.19;5065684;27;46315;-49
2023/11/19 07:20:24;;;;;;;;;0.00;0.00;;;;;12.56;100.00;101312.19;5060309;28;45391;-49
2023/11/19 07:22:49;;;;;;;;;4.67;1.33;;;;;12.56;100.00;101315.72;5062051;28;66595;-50
2023/11/19 07:25:15;;;;;;;;;4.00;1.00;;;;;12.60;100.00;101315.59;5057869;28;45493;-47
2023/11/19 07:27:40;;;;;;;;;1.67;1.00;;;;;12.60;100.00;101311.09;5060708;28;46298;-47
2023/11/19 07:30:09;;;;;;;;;1.00;1.00;;;;;12.62;100.00;101322.56;5061934;27;45414;-47
2023/11/19 07:32:35;;;;;;;;;0.00;0.00;;;;;12.64;100.00;101315.34;5058508;28;45663;-48
2023/11/19 07:35:00;;;;;;;;;1.67;0.00;;;;;12.68;100.00;101311.56;5057878;28;55599;-48
2023/11/19 07:37:26;;;;;;;;;1.00;1.00;;;;;12.70;100.00;101320.38;5058492;28;46648;-48
2023/11/19 07:39:51;;;;;;;;;3.00;0.33;;;;;12.77;100.00;101322.72;5058069;28;45489;-48
2023/11/19 07:42:16;;;;;;;;;2.33;1.00;;;;;12.82;100.00;101318.03;5059269;28;45315;-47
2023/11/19 07:44:43;;;;;;;;;1.00;1.00;;;;;12.86;100.00;101327.59;5061175;28;70452;-48
2023/11/19 07:47:09;;;;;;;;;1.33;0.00;;;;;12.90;100.00;101322.00;5052949;28;46585;-49
2023/11/19 07:49:34;;;;;;;;;1.00;1.00;;;;;12.95;100.00;101328.94;5055691;28;73214;-49
2023/11/19 07:51:59;;;;;;;;;1.00;1.00;;;;;12.97;100.00;101329.69;5057159;28;45486;-49
2023/11/19 07:54:25;;;;;;;;;1.00;1.00;;;;;13.03;100.00;101327.56;5058552;28;45538;-48
2023/11/19 07:56:50;;;;;;;;;2.00;2.00;;;;;13.08;100.00;101335.38;5056770;28;55661;-51
2023/11/19 07:59:16;;;;;;;;;2.00;1.00;;;;;13.11;100.00;101339.69;5058124;28;45442;-49
2023/11/19 08:01:41;;;;;;;;;0.00;0.00;;;;;13.14;100.00;101332.38;5057324;28;69301;-48
2023/11/19 08:04:06;;;;;;;;;0.67;0.67;;;;;13.18;98.87;101335.72;5056529;28;65609;-49
2023/11/19 08:06:32;;;;;;;;;2.67;1.00;;;;;13.19;98.26;101335.69;5056536;28;74153;-48
2023/11/19 08:08:57;;;;;;;;;2.00;0.33;;;;;13.22;99.25;101342.66;5055892;28;72229;-49
2023/11/19 08:11:22;;;;;;;;;0.00;0.00;;;;;13.22;99.76;101356.03;5058296;28;45535;-51
2023/11/19 08:13:48;;;;;;;;;1.00;1.00;;;;;13.21;98.82;101344.44;5057666;28;45592;-49
2023/11/19 08:16:14;;;;;;;;;3.00;1.33;;;;;13.19;99.07;101346.34;5057397;28;45492;-49
2023/11/19 08:18:43;;;;;;;;;0.00;0.00;;;;;13.19;99.17;101345.47;5055836;28;45594;-48
2023/11/19 08:21:09;;;;;;;;;1.00;1.00;;;;;13.18;99.00;101349.97;5056811;28;45422;-49
2023/11/19 08:23:34;;;;;;;;;3.00;2.00;;;;;13.19;99.60;101337.47;5058389;28;45150;-48
2023/11/19 08:25:59;;;;;;;;;3.33;2.00;;;;;13.21;99.59;101340.94;5056147;28;46667;-48
2023/11/19 08:28:25;;;;;;;;;2.67;1.00;;;;;13.21;99.19;101339.09;5058662;28;46532;-51
2023/11/19 08:30:50;;;;;;;;;4.33;1.00;;;;;13.20;98.41;101347.22;5063075;28;45496;-49
2023/11/19 08:33:16;;;;;;;;;2.00;1.00;;;;;13.19;98.96;101350.81;5056617;28;70459;-49
2023/11/19 08:35:41;;;;;;;;;1.33;1.00;;;;;13.17;98.05;101356.25;5069482;28;46055;-51
2023/11/19 08:38:07;;;;;;;;;2.33;1.00;;;;;13.20;98.48;101356.06;5059331;28;45376;-49
2023/11/19 08:40:32;;;;;;;;;1.00;1.00;;;;;13.22;98.42;101354.19;5063608;28;69338;-50
2023/11/19 08:42:57;;;;;;;;;0.33;0.33;;;;;13.25;98.60;101358.50;5066701;28;69314;-49
2023/11/19 08:45:23;;;;;;;;;0.67;0.67;;;;;13.30;98.28;101363.63;5060530;28;75554;-49
2023/11/19 08:47:48;;;;;;;;;5.67;3.00;;;;;13.38;97.88;101361.44;5063337;28;45490;-51
2023/11/19 08:50:14;;;;;;;;;4.00;0.33;;;;;13.44;97.94;101363.78;5058612;28;65042;-52
2023/11/19 08:52:39;;;;;;;;;1.00;1.00;;;;;13.50;97.51;101370.63;5092586;27;70277;-49
2023/11/19 08:55:05;;;;;;;;;0.67;0.00;;;;;13.54;96.27;101374.84;5055935;28;68843;-52
2023/11/19 08:57:31;;;;;;;;;1.00;1.00;;;;;13.59;95.73;101388.81;5051678;28;45528;-50
2023/11/19 08:59:56;;;;;;;;;1.67;1.00;;;;;13.64;95.29;101394.78;5064701;27;45431;-50
2023/11/19 09:02:21;;;;;;;;;2.33;1.33;;;;;13.78;95.74;101406.53;5055420;28;61456;-51
2023/11/19 09:04:47;;;;;;;;;4.00;2.00;;;;;13.88;92.45;101405.09;5047793;28;75777;-48
2023/11/19 09:07:12;;;;;;;;;0.00;0.00;;;;;14.00;94.89;101411.59;5054012;28;73216;-48
2023/11/19 09:09:37;;;;;;;;;4.67;1.00;;;;;14.11;93.27;101409.19;5055447;28;45487;-48
2023/11/19 09:12:05;;;;;;;;;1.67;1.00;;;;;14.19;93.53;101398.06;5056909;28;45285;-49
2023/11/19 09:14:31;;;;;;;;;1.00;0.25;;;;;14.16;92.91;101385.72;5060136;28;46299;-49
2023/11/19 09:16:57;;;;;;;;;1.00;1.00;;;;;14.12;92.76;101394.00;5054946;28;71970;-49
2023/11/19 09:19:22;;;;;;;;;2.67;1.00;;;;;14.05;91.97;101402.38;5075902;27;45656;-47
2023/11/19 09:21:49;;;;;;;;;4.00;2.00;;;;;14.00;90.24;101395.53;5041093;28;45535;-47
2023/11/19 09:24:15;;;;;;;;;3.33;2.00;;;;;13.98;91.40;101386.75;5042195;28;47957;-47
2023/11/19 09:26:41;;;;;;;;;3.33;1.00;;;;;14.02;91.76;101393.66;5055820;28;45427;-51
2023/11/19 09:29:09;;;;;;;;;1.00;1.00;;;;;14.07;88.39;101379.06;5053774;28;45429;-49
2023/11/19 09:31:35;;;;;;;;;1.67;1.00;;;;;14.15;88.59;101380.47;5061229;28;48756;-48
2023/11/19 09:34:01;;;;;;;;;3.33;2.00;;;;;14.34;90.02;101386.50;5045484;28;45658;-48
2023/11/19 09:36:26;;;;;;;;;3.00;1.00;;;;;15.07;90.02;101397.56;5063456;28;45389;-48
2023/11/19 09:38:51;;;;;;;;;2.00;2.00;;;;;15.80;84.72;101386.84;5055900;28;69312;-49
2023/11/19 09:41:19;;;;;;;;;3.00;3.00;;;;;16.67;84.27;101392.03;5056470;28;45494;-49
2023/11/19 09:43:45;;;;;;;;;2.67;0.33;;;;;17.49;81.10;101383.84;5054245;28;47543;-52
2023/11/19 09:46:11;;;;;;;;;1.50;1.50;;;;;17.78;75.62;101375.53;5057226;28;45295;-49
2023/11/19 09:48:37;;;;;;;;;3.00;0.00;;;;;18.33;78.29;101370.72;5085131;27;45399;-49
2023/11/19 09:51:04;;;;;;;;;1.00;0.75;;;;;18.98;72.92;101382.03;5050842;28;45339;-51
2023/11/19 09:53:31;;;;;;;;;2.00;2.00;;;;;19.56;70.20;101376.66;5092267;27;46605;-51
2023/11/19 09:56:02;;;;;;;;;1.00;0.00;;;;;20.24;72.75;101368.53;5057830;28;45612;-49
2023/11/19 09:58:31;;;;;;;;;2.00;1.00;;;;;20.89;67.75;101371.28;5060377;28;45460;-54
2023/11/19 10:01:00;;;;;;;;;1.00;1.00;;;;;21.45;67.47;101378.22;5074917;28;45506;-49
2023/11/19 10:03:27;;;;;;;;;1.25;1.00;;;;;21.75;64.77;101376.53;5057358;28;45591;-51
2023/11/19 10:05:54;;;;;;;;;0.50;0.50;;;;;21.71;62.96;101372.38;5059611;28;45453;-51
2023/11/19 10:08:19;;;;;;;;;3.75;1.00;;;;;21.69;61.29;101368.09;5061106;28;45370;-51
2023/11/19 10:10:44;;;;;;;;;1.00;0.00;;;;;21.75;61.67;101378.41;5059236;28;51613;-49
2023/11/19 10:13:10;;;;;;;;;1.75;0.75;;;;;21.90;62.82;101379.75;5093648;27;46014;-50
2023/11/19 10:15:37;;;;;;;;;4.00;0.75;;;;;22.06;60.82;101383.75;5069754;28;73073;-50
2023/11/19 10:18:04;;;;;;;;;1.75;1.50;;;;;22.32;62.44;101381.44;5055442;28;45518;-50
2023/11/19 10:20:35;;;;;;;;;4.00;1.00;;;;;22.56;61.27;101378.34;5058509;28;45392;-53
2023/11/19 10:23:00;;;;;;;;;2.00;1.00;;;;;22.80;61.71;101382.47;5071699;27;50102;-51
2023/11/19 10:25:27;;;;;;;;;0.50;0.50;;;;;22.88;56.61;101377.22;5056901;28;73144;-53
2023/11/19 10:27:53;;;;;;;;;1.00;1.00;;;;;22.91;58.42;101376.91;5059798;28;45464;-52
2023/11/19 10:30:23;;;;;;;;;2.25;1.75;;;;;23.03;56.26;101384.91;5058257;28;45423;-50
2023/11/19 10:33:05;;;;;;;;;2.00;1.00;;;;;22.75;52.92;101382.91;5056654;28;45966;-50
2023/11/19 10:35:32;;;;;;;;;4.75;1.00;;;;;22.34;55.62;101390.25;5052892;28;45412;-49
2023/11/19 10:37:59;;;;;;;;;2.25;1.00;;;;;21.97;56.46;101389.00;5019629;28;45384;-52
2023/11/19 10:40:37;;;;;;;;;1.50;1.00;;;;;21.54;56.91;101382.00;5027923;28;45571;-49
2023/11/19 10:43:03;;;;;;;;;0.75;0.75;;;;;21.32;57.31;101377.56;5048206;28;46222;-52
2023/11/19 10:45:28;;;;;;;;;2.25;2.00;;;;;21.45;57.04;101378.22;5020103;28;45471;-53
2023/11/19 10:47:54;;;;;;;;;5.50;1.25;;;;;21.61;57.29;101385.88;5006326;28;45624;-50
2023/11/19 10:50:20;;;;;;;;;3.75;1.00;;;;;21.75;56.47;101381.09;5020148;28;70515;-49
2023/11/19 10:52:46;;;;;;;;;2.50;1.25;;;;;21.51;54.71;101378.66;5036715;28;45488;-51
2023/11/19 10:55:14;;;;;;;;;5.50;1.50;;;;;21.19;57.32;101385.88;5052754;28;73446;-53
2023/11/19 10:57:43;;;;;;;;;1.75;1.00;;;;;21.19;56.33;101379.63;5050604;28;45466;-51
2023/11/19 11:00:12;;;;;;;;;1.25;1.25;;;;;20.91;54.57;101373.84;5035440;28;46980;-49
2023/11/19 11:02:42;;;;;;;;;2.50;1.50;;;;;20.52;55.96;101371.66;5006964;28;47840;-51
2023/11/19 11:05:07;;;;;;;;;2.25;1.00;;;;;20.23;56.09;101368.66;5035578;28;45552;-50
2023/11/19 11:07:34;;;;;;;;;4.00;2.00;;;;;19.95;55.20;101368.22;5023909;28;45531;-52
2023/11/19 11:10:01;;;;;;;;;3.25;2.00;;;;;20.14;57.87;101372.97;5045563;28;45431;-48
2023/11/19 11:12:27;;;;;;;;;3.00;2.50;;;;;20.42;56.73;101373.41;5039371;28;46465;-50
2023/11/19 11:14:54;;;;;;;;;3.50;3.50;;;;;20.69;56.66;101356.75;5038482;28;45198;-49